createdAt,value
2018-11-02T00:01:09.100Z,8.50
2018-11-02T00:03:37.901Z,7.50
2018-11-02T00:06:06.734Z,5.77
2018-11-02T00:08:35.484Z,5.50
2018-11-02T00:11:04.290Z,6.60
2018-11-02T00:13:33.170Z,6.57
2018-11-02T00:16:01.975Z,6.47
2018-11-02T00:18:30.825Z,6.03
2018-11-02T00:20:59.672Z,7.20
2018-11-02T00:23:28.467Z,5.93
2018-11-02T00:25:57.261Z,6.53
2018-11-02T00:28:26.221Z,6.77
2018-11-02T00:30:55.075Z,8.20
2018-11-02T00:33:23.919Z,9.20
2018-11-02T00:35:52.864Z,6.70
2018-11-02T00:38:21.563Z,5.77
2018-11-02T00:40:50.334Z,5.17
2018-11-02T00:43:19.125Z,5.73
2018-11-02T00:45:47.755Z,6.73
2018-11-02T00:48:16.695Z,7.87
2018-11-02T00:50:45.433Z,5.87
2018-11-02T00:53:14.222Z,5.00
2018-11-02T00:55:42.988Z,6.73
2018-11-02T00:58:11.658Z,6.63
2018-11-02T01:00:40.412Z,5.67
2018-11-02T01:03:09.229Z,7.37
2018-11-02T01:05:37.857Z,5.87
2018-11-02T01:08:06.677Z,9.80
2018-11-02T01:10:35.376Z,8.17
2018-11-02T01:13:04.085Z,7.03
2018-11-02T01:15:32.876Z,5.00
2018-11-02T01:18:01.558Z,6.87
2018-11-02T01:20:30.223Z,7.53
2018-11-02T01:22:58.967Z,4.90
2018-11-02T01:25:27.842Z,7.90
2018-11-02T01:27:56.656Z,7.17
2018-11-02T01:30:25.444Z,5.03
2018-11-02T01:32:54.207Z,7.37
2018-11-02T01:35:23.085Z,6.17
2018-11-02T01:37:51.661Z,7.07
2018-11-02T01:40:20.553Z,8.10
2018-11-02T01:42:49.260Z,4.47
2018-11-02T01:45:17.957Z,7.93
2018-11-02T01:47:46.733Z,6.50
2018-11-02T01:50:15.771Z,6.47
2018-11-02T01:52:44.409Z,5.27
2018-11-02T01:55:13.249Z,7.03
2018-11-02T01:57:42.138Z,7.47
2018-11-02T02:00:10.876Z,7.30
2018-11-02T02:02:39.629Z,5.73
2018-11-02T02:05:08.484Z,10.60
2018-11-02T02:07:37.139Z,6.17
2018-11-02T02:10:06.075Z,9.47
2018-11-02T02:12:34.736Z,7.10
2018-11-02T02:15:03.473Z,8.07
2018-11-02T02:17:32.435Z,6.87
2018-11-02T02:20:01.120Z,6.67
2018-11-02T02:22:30.104Z,7.80
2018-11-02T02:24:58.831Z,6.83
2018-11-02T02:28:14.749Z,5.47
2018-11-02T02:30:43.416Z,6.03
2018-11-02T02:33:12.414Z,8.17
2018-11-02T02:35:40.959Z,7.70
2018-11-02T02:38:09.752Z,6.33
2018-11-02T02:40:38.546Z,7.63
2018-11-02T02:43:07.345Z,8.23
2018-11-02T02:45:36.186Z,6.63
2018-11-02T02:48:05.209Z,6.50
2018-11-02T02:50:34.241Z,6.80
2018-11-02T02:53:03.182Z,11.97
2018-11-02T02:55:32.079Z,6.90
2018-11-02T02:58:00.716Z,10.37
2018-11-02T03:00:29.549Z,10.73
2018-11-02T03:02:58.442Z,13.67
2018-11-02T03:05:27.177Z,11.90
2018-11-02T03:07:56.013Z,13.27
2018-11-02T03:10:24.899Z,10.37
2018-11-02T03:12:53.778Z,11.70
2018-11-02T03:15:22.678Z,12.60
2018-11-02T03:17:51.556Z,9.50
2018-11-02T03:20:20.382Z,11.17
2018-11-02T03:22:49.380Z,12.57
2018-11-02T03:25:18.039Z,9.90
2018-11-02T03:27:46.779Z,13.03
2018-11-02T03:30:15.399Z,10.93
2018-11-02T03:32:44.145Z,14.00
2018-11-02T03:35:12.931Z,11.77
2018-11-02T03:37:41.806Z,12.60
2018-11-02T03:40:11.414Z,15.90
2018-11-02T03:42:40.260Z,9.60
2018-11-02T03:45:09.132Z,10.83
2018-11-02T03:47:38.146Z,12.27
2018-11-02T03:50:08.143Z,13.63
2018-11-02T03:52:37.190Z,12.40
2018-11-02T03:55:06.000Z,13.47
2018-11-02T03:57:34.782Z,16.00
2018-11-02T04:00:03.722Z,14.77
2018-11-02T04:02:32.516Z,15.13
2018-11-02T04:05:01.090Z,13.77
2018-11-02T04:07:30.072Z,14.83
2018-11-02T04:09:58.913Z,11.07
2018-11-02T04:12:27.767Z,17.53
2018-11-02T04:14:56.519Z,15.70
2018-11-02T04:17:25.303Z,12.33
2018-11-02T04:19:54.221Z,12.60
2018-11-02T04:22:22.970Z,14.27
2018-11-02T04:27:25.994Z,11.43
2018-11-02T04:29:54.660Z,13.87
2018-11-02T04:32:23.519Z,17.13
2018-11-02T04:34:52.236Z,12.03
2018-11-02T04:37:20.940Z,12.30
2018-11-02T04:39:49.855Z,16.53
2018-11-02T04:42:18.426Z,18.07
2018-11-02T04:44:47.326Z,13.53
2018-11-02T04:47:16.152Z,12.50
2018-11-02T04:49:44.907Z,12.17
2018-11-02T04:52:13.637Z,13.80
2018-11-02T04:54:42.256Z,18.27
2018-11-02T04:57:11.229Z,17.77
2018-11-02T04:59:39.956Z,15.53
2018-11-02T05:02:08.724Z,15.10
2018-11-02T05:04:37.391Z,12.07
2018-11-02T05:07:06.243Z,13.37
2018-11-02T05:09:34.946Z,12.37
2018-11-02T05:12:03.756Z,17.57
2018-11-02T05:14:32.558Z,15.53
2018-11-02T05:17:01.242Z,15.27
2018-11-02T05:19:30.089Z,12.47
2018-11-02T05:21:59.031Z,17.23
2018-11-02T05:24:27.899Z,22.73
2018-11-02T05:26:56.682Z,15.07
2018-11-02T05:29:25.617Z,14.80
2018-11-02T05:31:54.391Z,17.00
2018-11-02T05:34:23.209Z,15.67
2018-11-02T05:36:51.884Z,19.57
2018-11-02T05:39:20.666Z,15.97
2018-11-02T05:41:49.443Z,11.90
2018-11-02T05:44:18.253Z,16.00
2018-11-02T05:46:46.914Z,14.83
2018-11-02T05:49:16.477Z,12.90
2018-11-02T05:51:45.290Z,17.63
2018-11-02T05:54:14.193Z,12.87
2018-11-02T05:56:55.585Z,17.33
2018-11-02T05:59:24.915Z,16.20
2018-11-02T06:01:53.871Z,15.93
2018-11-02T06:04:22.901Z,17.60
2018-11-02T06:06:51.630Z,15.93
2018-11-02T06:09:20.339Z,20.07
2018-11-02T06:11:49.143Z,17.53
2018-11-02T06:14:17.814Z,14.27
2018-11-02T06:16:46.681Z,15.40
2018-11-02T06:19:22.155Z,14.63
2018-11-02T06:21:51.141Z,18.27
2018-11-02T06:24:19.986Z,19.77
2018-11-02T06:26:48.763Z,15.45
2018-11-02T06:29:17.587Z,15.93
2018-11-02T06:31:46.496Z,14.60
2018-11-02T06:34:15.467Z,19.63
2018-11-02T06:36:44.232Z,17.70
2018-11-02T06:39:12.881Z,14.53
2018-11-02T06:41:41.640Z,17.93
2018-11-02T06:44:10.638Z,19.00
2018-11-02T06:46:39.448Z,20.70
2018-11-02T06:49:08.206Z,14.27
2018-11-02T06:51:37.005Z,14.50
2018-11-02T06:54:05.993Z,17.13
2018-11-02T06:56:34.918Z,19.00
2018-11-02T06:59:03.694Z,15.90
2018-11-02T07:01:32.485Z,17.50
2018-11-02T07:04:01.223Z,16.33
2018-11-02T07:06:29.940Z,16.67
2018-11-02T07:08:58.915Z,20.67
2018-11-02T07:11:27.657Z,14.93
2018-11-02T07:13:56.483Z,14.10
2018-11-02T07:16:25.203Z,15.23
2018-11-02T07:18:53.970Z,15.50
2018-11-02T07:21:22.756Z,18.47
2018-11-02T07:23:51.673Z,18.90
2018-11-02T07:26:20.309Z,16.80
2018-11-02T07:28:49.118Z,12.77
2018-11-02T07:31:17.892Z,20.17
2018-11-02T07:33:46.617Z,19.00
2018-11-02T07:36:15.395Z,16.33
2018-11-02T07:38:44.172Z,16.37
2018-11-02T07:41:12.951Z,20.20
2018-11-02T07:43:41.561Z,25.57
2018-11-02T07:46:10.324Z,19.27
2018-11-02T07:48:39.043Z,17.37
2018-11-02T07:51:07.889Z,19.63
2018-11-02T07:53:36.482Z,21.07
2018-11-02T07:56:05.227Z,20.57
2018-11-02T07:58:34.057Z,16.07
2018-11-02T08:01:02.844Z,17.23
2018-11-02T08:03:31.499Z,13.90
2018-11-02T08:06:00.492Z,18.17
2018-11-02T08:08:29.257Z,22.30
2018-11-02T08:10:57.973Z,19.53
2018-11-02T08:13:26.728Z,17.27
2018-11-02T08:15:55.751Z,19.10
2018-11-02T08:18:25.484Z,18.30
2018-11-02T08:20:54.259Z,15.13
2018-11-02T08:23:23.017Z,17.90
2018-11-02T08:25:51.733Z,15.23
2018-11-02T08:28:20.432Z,17.37
2018-11-02T08:30:49.322Z,21.63
2018-11-02T08:33:17.980Z,15.20
2018-11-02T08:35:46.696Z,17.30
2018-11-02T08:38:15.456Z,20.47
2018-11-02T08:40:44.582Z,14.87
2018-11-02T08:43:13.309Z,15.80
2018-11-02T08:45:41.977Z,20.27
2018-11-02T08:48:10.753Z,18.87
2018-11-02T08:50:39.447Z,23.43
2018-11-02T08:53:08.402Z,17.47
2018-11-02T08:55:37.236Z,17.13
2018-11-02T08:58:06.069Z,17.83
2018-11-02T09:00:34.715Z,14.90
2018-11-02T09:03:03.566Z,19.23
2018-11-02T09:05:39.128Z,17.90
2018-11-02T09:08:08.000Z,19.53
2018-11-02T09:10:36.643Z,18.07
2018-11-02T09:13:05.480Z,17.67
2018-11-02T09:15:34.572Z,14.13
2018-11-02T09:18:03.453Z,20.23
2018-11-02T09:20:32.117Z,16.03
2018-11-02T09:23:00.998Z,17.23
2018-11-02T09:25:29.849Z,17.43
2018-11-02T09:27:58.701Z,16.30
2018-11-02T09:30:27.486Z,16.63
2018-11-02T09:32:56.095Z,16.27
2018-11-02T09:35:24.945Z,16.70
2018-11-02T09:37:53.675Z,15.63
2018-11-02T09:40:22.728Z,17.13
2018-11-02T09:42:51.529Z,16.93
2018-11-02T09:45:20.397Z,20.17
2018-11-02T09:47:49.079Z,18.47
2018-11-02T09:50:17.887Z,14.53
2018-11-02T09:52:46.789Z,17.40
2018-11-02T09:55:16.009Z,13.50
2018-11-02T09:57:45.504Z,17.13
2018-11-02T10:00:14.906Z,20.13
2018-11-02T10:02:43.752Z,11.83
2018-11-02T10:05:13.162Z,13.27
2018-11-02T10:07:42.286Z,17.00
2018-11-02T10:10:12.135Z,15.17
2018-11-02T10:12:41.151Z,16.67
2018-11-02T10:15:13.881Z,15.60
2018-11-02T10:17:42.660Z,17.17
2018-11-02T10:20:11.749Z,18.50
2018-11-02T10:22:40.508Z,8.07
2018-11-02T10:25:10.019Z,12.97
2018-11-02T10:27:40.269Z,13.83
2018-11-02T10:30:11.213Z,15.17
2018-11-02T10:32:40.499Z,14.73
2018-11-02T10:35:09.545Z,20.43
2018-11-02T10:37:39.239Z,15.87
2018-11-02T10:40:12.877Z,10.43
2018-11-02T10:42:42.991Z,13.60
2018-11-02T10:45:11.856Z,15.60
2018-11-02T10:47:41.084Z,16.07
2018-11-02T10:50:09.985Z,10.93
2018-11-02T10:52:45.546Z,10.90
2018-11-02T10:55:14.253Z,12.20
2018-11-02T10:57:43.040Z,14.93
2018-11-02T11:00:17.849Z,15.73
2018-11-02T11:02:46.513Z,18.67
2018-11-02T11:05:15.363Z,15.13
2018-11-02T11:07:44.009Z,16.03
2018-11-02T11:10:12.996Z,17.37
2018-11-02T11:12:42.039Z,15.97
2018-11-02T11:15:10.506Z,14.23
2018-11-02T11:17:39.152Z,19.67
2018-11-02T11:20:10.520Z,12.73
2018-11-02T11:22:39.513Z,15.23
2018-11-02T11:25:10.386Z,15.40
2018-11-02T11:27:39.664Z,15.20
2018-11-02T11:30:11.139Z,18.73
2018-11-02T11:32:40.116Z,14.43
2018-11-02T11:35:10.757Z,20.67
2018-11-02T11:37:40.123Z,12.53
2018-11-02T11:40:19.549Z,9.97
2018-11-02T11:42:48.428Z,13.80
2018-11-02T11:45:18.448Z,18.20
2018-11-02T11:47:47.158Z,11.03
2018-11-02T11:50:18.543Z,15.27
2018-11-02T11:52:48.343Z,13.43
2018-11-02T11:55:17.396Z,17.83
2018-11-02T11:57:46.135Z,14.43
2018-11-02T12:00:16.709Z,16.70
2018-11-02T12:02:46.240Z,13.43
2018-11-02T12:05:16.295Z,15.87
2018-11-02T12:07:45.196Z,15.77
2018-11-02T12:10:16.539Z,11.90
2018-11-02T12:12:45.396Z,11.87
2018-11-02T12:15:17.037Z,15.00
2018-11-02T12:17:46.511Z,18.10
2018-11-02T12:20:21.584Z,13.40
2018-11-02T12:22:51.380Z,10.37
2018-11-02T12:25:20.180Z,12.00
2018-11-02T12:27:48.952Z,11.40
2018-11-02T12:30:18.288Z,14.90
2018-11-02T12:32:48.366Z,15.40
2018-11-02T12:35:17.934Z,14.43
2018-11-02T12:37:46.693Z,10.63
2018-11-02T12:40:17.684Z,15.77
2018-11-02T12:42:47.468Z,13.97
2018-11-02T12:45:17.428Z,13.17
2018-11-02T12:47:46.676Z,12.80
2018-11-02T12:50:18.863Z,14.07
2018-11-02T12:52:48.548Z,11.97
2018-11-02T12:55:17.704Z,15.77
2018-11-02T12:57:46.439Z,10.77
2018-11-02T13:00:17.016Z,10.03
2018-11-02T13:02:46.620Z,16.90
2018-11-02T13:05:15.287Z,19.03
2018-11-02T13:07:44.175Z,19.93
2018-11-02T13:10:14.343Z,15.50
2018-11-02T13:12:43.156Z,15.53
2018-11-02T13:15:13.304Z,14.30
2018-11-02T13:17:42.850Z,19.77
2018-11-02T13:20:12.163Z,14.87
2018-11-02T13:22:41.632Z,15.77
2018-11-02T13:25:12.294Z,13.37
2018-11-02T13:27:41.463Z,16.70
2018-11-02T13:30:10.598Z,16.47
2018-11-02T13:32:39.468Z,16.10
2018-11-02T13:35:10.773Z,13.97
2018-11-02T13:37:39.772Z,11.77
2018-11-02T13:40:09.586Z,12.53
2018-11-02T13:42:38.881Z,13.17
2018-11-02T13:45:08.732Z,19.53
2018-11-02T13:47:37.329Z,12.10
2018-11-02T13:50:06.740Z,12.37
2018-11-02T13:52:35.628Z,14.43
2018-11-02T13:55:04.659Z,15.87
2018-11-02T13:57:33.571Z,15.97
2018-11-02T14:00:02.316Z,15.23
2018-11-02T14:02:31.063Z,18.90
2018-11-02T14:04:59.868Z,16.30
2018-11-02T14:07:28.556Z,11.43
2018-11-02T14:09:57.330Z,16.63
2018-11-02T14:12:26.384Z,15.23
2018-11-02T14:14:55.172Z,11.63
2018-11-02T14:17:24.231Z,17.00
2018-11-02T14:19:52.861Z,18.35
2018-11-02T14:22:21.629Z,21.47
2018-11-02T14:24:50.401Z,13.40
2018-11-02T14:27:19.059Z,17.13
2018-11-02T14:29:47.896Z,13.43
2018-11-02T14:32:16.630Z,14.90
2018-11-02T14:34:45.318Z,17.37
2018-11-02T14:37:14.267Z,18.13
2018-11-02T14:39:43.144Z,16.20
2018-11-02T14:42:11.956Z,16.73
2018-11-02T14:44:40.815Z,16.97
2018-11-02T14:47:09.603Z,18.70
2018-11-02T14:49:38.276Z,19.57
2018-11-02T14:52:07.128Z,19.73
2018-11-02T14:54:36.003Z,15.73
2018-11-02T14:57:04.844Z,18.90
2018-11-02T14:59:33.849Z,15.47
2018-11-02T15:02:02.747Z,13.90
2018-11-02T15:04:31.474Z,18.23
2018-11-02T15:07:00.290Z,15.27
2018-11-02T15:09:29.002Z,14.60
2018-11-02T15:11:57.961Z,24.13
2018-11-02T15:14:26.684Z,22.83
2018-11-02T15:16:55.472Z,19.90
2018-11-02T15:19:24.242Z,21.67
2018-11-02T15:21:53.132Z,23.33
2018-11-02T15:24:21.775Z,17.43
2018-11-02T15:26:50.498Z,28.83
2018-11-02T15:29:19.319Z,27.07
2018-11-02T15:31:48.035Z,33.83
2018-11-02T15:34:16.632Z,30.20
2018-11-02T15:36:45.312Z,24.77
2018-11-02T15:39:14.149Z,31.20
2018-11-02T15:41:42.903Z,27.73
2018-11-02T15:44:11.839Z,22.57
2018-11-02T15:46:40.448Z,23.77
2018-11-02T15:49:09.318Z,19.20
2018-11-02T15:51:38.098Z,17.67
2018-11-02T15:54:06.979Z,31.73
2018-11-02T15:56:35.888Z,17.17
2018-11-02T15:59:04.516Z,17.43
2018-11-02T16:01:33.522Z,18.20
2018-11-02T16:04:02.279Z,19.27
2018-11-02T16:06:31.383Z,20.37
2018-11-02T16:09:00.150Z,22.73
2018-11-02T16:11:28.950Z,16.97
2018-11-02T16:13:57.585Z,19.43
2018-11-02T16:16:26.270Z,23.70
2018-11-02T16:18:55.197Z,25.97
2018-11-02T16:21:23.820Z,27.27
2018-11-02T16:23:52.775Z,20.17
2018-11-02T16:26:21.591Z,23.10
2018-11-02T16:28:50.259Z,21.23
2018-11-02T16:31:18.993Z,25.20
2018-11-02T16:33:47.880Z,21.87
2018-11-02T16:36:16.574Z,19.57
2018-11-02T16:38:45.566Z,19.07
2018-11-02T16:41:14.211Z,24.70
2018-11-02T16:43:43.042Z,20.07
2018-11-02T16:46:11.562Z,18.40
2018-11-02T16:48:40.206Z,26.90
2018-11-02T16:51:09.040Z,22.73
2018-11-02T16:53:37.847Z,28.27
2018-11-02T16:56:06.749Z,19.17
2018-11-02T16:58:35.648Z,24.80
2018-11-02T17:01:04.367Z,23.17
2018-11-02T17:03:33.227Z,24.27
2018-11-02T17:06:01.980Z,19.73
2018-11-02T17:08:30.643Z,20.17
2018-11-02T17:10:59.397Z,31.63
2018-11-02T17:13:28.242Z,29.40
2018-11-02T17:15:57.250Z,24.50
2018-11-02T17:18:26.443Z,19.40
2018-11-02T17:20:55.246Z,25.80
2018-11-02T17:23:24.001Z,23.00
2018-11-02T17:25:52.589Z,20.63
2018-11-02T17:28:21.304Z,21.97
2018-11-02T17:30:50.023Z,25.80
2018-11-02T17:33:18.804Z,23.50
2018-11-02T17:35:47.450Z,23.87
2018-11-02T17:38:16.100Z,22.30
2018-11-02T17:40:44.671Z,26.63
2018-11-02T17:43:13.511Z,19.67
2018-11-02T17:45:42.110Z,22.00
2018-11-02T17:48:10.982Z,25.70
2018-11-02T17:50:39.881Z,23.40
2018-11-02T17:53:08.679Z,26.47
2018-11-02T17:55:37.370Z,20.77
2018-11-02T17:58:06.245Z,20.33
2018-11-02T18:00:35.282Z,21.97
2018-11-02T18:03:04.325Z,24.43
2018-11-02T18:05:33.007Z,20.67
2018-11-02T18:08:01.715Z,24.70
2018-11-02T18:10:30.491Z,24.10
2018-11-02T18:12:59.273Z,28.73
2018-11-02T18:15:28.052Z,25.83
2018-11-02T18:17:56.884Z,25.23
2018-11-02T18:20:25.658Z,32.03
2018-11-02T18:22:54.355Z,28.37
2018-11-02T18:25:23.127Z,29.80
2018-11-02T18:27:51.916Z,27.03
2018-11-02T18:30:20.804Z,27.90
2018-11-02T18:32:49.389Z,29.80
2018-11-02T18:35:18.061Z,24.00
2018-11-02T18:37:46.730Z,27.97
2018-11-02T18:40:15.480Z,25.33
2018-11-02T18:42:44.332Z,26.53
2018-11-02T18:45:14.089Z,30.07
2018-11-02T18:47:45.515Z,27.63
2018-11-02T18:50:15.884Z,24.37
2018-11-02T18:52:45.032Z,25.47
2018-11-02T18:55:13.780Z,29.50
2018-11-02T18:57:42.696Z,27.63
2018-11-02T19:00:12.079Z,26.37
2018-11-02T19:02:41.118Z,29.67
2018-11-02T19:05:12.637Z,27.83
2018-11-02T19:07:41.280Z,26.60
2018-11-02T19:10:10.732Z,29.80
2018-11-02T19:12:39.820Z,23.40
2018-11-02T19:15:11.550Z,26.30
2018-11-02T19:17:40.693Z,27.90
2018-11-02T19:20:10.291Z,24.30
2018-11-02T19:22:39.168Z,31.80
2018-11-02T19:25:09.375Z,26.33
2018-11-02T19:27:38.139Z,24.27
2018-11-02T19:30:08.386Z,25.70
2018-11-02T19:32:37.450Z,29.77
2018-11-02T19:35:06.864Z,24.37
2018-11-02T19:37:35.551Z,24.63
2018-11-02T19:40:05.077Z,26.83
2018-11-02T19:42:33.941Z,27.77
2018-11-02T19:45:02.655Z,25.87
2018-11-02T19:47:36.831Z,29.67
2018-11-02T19:50:07.110Z,26.20
2018-11-02T19:52:35.764Z,29.80
2018-11-02T19:55:04.992Z,33.23
2018-11-02T19:57:33.665Z,23.93
2018-11-02T20:00:02.747Z,30.50
2018-11-02T20:02:31.756Z,32.50
2018-11-02T20:05:00.890Z,27.00
2018-11-02T20:07:30.541Z,27.83
2018-11-02T20:09:59.342Z,24.93
2018-11-02T20:12:28.284Z,28.43
2018-11-02T20:14:57.124Z,28.20
2018-11-02T20:17:26.028Z,25.57
2018-11-02T20:19:54.700Z,32.77
2018-11-02T20:22:23.578Z,28.20
2018-11-02T20:24:52.308Z,32.90
2018-11-02T20:27:21.141Z,38.90
2018-11-02T20:29:50.064Z,51.80
2018-11-02T20:32:18.725Z,36.07
2018-11-02T20:34:47.614Z,45.83
2018-11-02T20:37:16.293Z,41.83
2018-11-02T20:39:45.275Z,39.77
2018-11-02T20:42:13.993Z,35.80
2018-11-02T20:44:42.872Z,29.97
2018-11-02T20:47:11.676Z,27.63
2018-11-02T20:49:40.301Z,32.50
2018-11-02T20:52:08.911Z,39.23
2018-11-02T20:54:37.831Z,33.53
2018-11-02T20:57:06.640Z,37.03
2018-11-02T20:59:35.362Z,40.20
2018-11-02T21:02:04.139Z,44.07
2018-11-02T21:04:32.957Z,34.37
2018-11-02T21:07:01.688Z,38.47
2018-11-02T21:09:30.726Z,39.63
2018-11-02T21:11:59.385Z,44.63
2018-11-02T21:14:28.313Z,39.70
2018-11-02T21:16:57.390Z,45.27
2018-11-02T21:19:26.186Z,42.97
2018-11-02T21:21:54.957Z,44.17
2018-11-02T21:24:23.650Z,35.63
2018-11-02T21:26:52.468Z,30.97
2018-11-02T21:29:21.310Z,31.10
2018-11-02T21:31:49.837Z,32.37
2018-11-02T21:34:18.609Z,32.60
2018-11-02T21:36:47.328Z,29.03
2018-11-02T21:39:16.201Z,31.00
2018-11-02T21:41:44.834Z,32.20
2018-11-02T21:44:13.546Z,31.43
2018-11-02T21:46:42.472Z,27.10
2018-11-02T21:49:11.264Z,34.27
2018-11-02T21:51:39.869Z,31.97
2018-11-02T21:54:08.619Z,29.97
2018-11-02T21:56:37.315Z,37.63
2018-11-02T21:59:06.200Z,38.67
2018-11-02T22:01:34.891Z,34.00
2018-11-02T22:04:03.543Z,38.10
2018-11-02T22:06:32.316Z,38.07
2018-11-02T22:09:01.146Z,39.63
2018-11-02T22:11:30.092Z,34.67
2018-11-02T22:13:58.764Z,40.43
2018-11-02T22:16:27.486Z,40.83
2018-11-02T22:18:56.305Z,37.73
2018-11-02T22:21:25.169Z,39.97
2018-11-02T22:23:53.782Z,43.93
2018-11-02T22:26:22.645Z,39.00
2018-11-02T22:28:51.489Z,33.50
2018-11-02T22:31:20.328Z,36.67
2018-11-02T22:33:49.156Z,34.90
2018-11-02T22:36:17.923Z,35.97
2018-11-02T22:38:46.847Z,30.77
2018-11-02T22:41:15.610Z,43.13
2018-11-02T22:43:44.460Z,35.97
2018-11-02T22:46:13.232Z,37.83
2018-11-02T22:48:42.184Z,33.23
2018-11-02T22:51:10.938Z,31.73
2018-11-02T22:53:39.675Z,33.23
2018-11-02T22:56:08.466Z,32.77
2018-11-02T22:58:37.374Z,33.20
2018-11-02T23:01:11.805Z,32.47
2018-11-02T23:03:40.654Z,30.70
2018-11-02T23:06:09.478Z,29.47
2018-11-02T23:08:38.212Z,27.97
2018-11-02T23:11:07.126Z,30.33
2018-11-02T23:13:35.981Z,29.97
2018-11-02T23:16:04.993Z,32.30
2018-11-02T23:18:33.857Z,31.03
2018-11-02T23:21:02.754Z,30.90
2018-11-02T23:23:31.773Z,28.17
2018-11-02T23:26:00.530Z,36.87
2018-11-02T23:28:29.591Z,33.03
2018-11-02T23:30:58.515Z,32.83
2018-11-02T23:33:27.409Z,31.43
2018-11-02T23:35:56.506Z,34.03
2018-11-02T23:38:25.362Z,32.93
2018-11-02T23:40:54.316Z,33.60
2018-11-02T23:43:23.230Z,33.17
2018-11-02T23:45:52.019Z,35.33
2018-11-02T23:48:20.950Z,39.40
2018-11-02T23:50:50.740Z,31.30
2018-11-02T23:53:19.735Z,31.93
2018-11-02T23:55:48.545Z,35.87
2018-11-02T23:58:17.429Z,29.70
